
Distance (Route):
Temperature : 20.3°C
Humidity : 47.7%
Pressure : 0hPa| Receiver | Date | Latitude | Longitude | Direction | Speed | Altitude | Climb | Temperature | Humidity | Pressure | Voltage | Killtimer | Uptime | BKT | XDATA |
|---|---|---|---|---|---|---|---|---|---|---|---|---|---|---|---|
| LZ4TU-5 | 2026-09-01 00:59:02 | 44.22499 | 23.25970 | 242° | 5km/h | 1430m | -13.0m/s | 20.3°C | 47.7% | 0hPa | 0V | 00:00:00 | 00:00:00 | 00:00:00 | |
| LZ4TU-5 | 2026-09-01 00:52:47 | 44.23192 | 23.22614 | 104° | 53km/h | 7085m | -18.1m/s | -15.9°C | 12.4% | 0hPa | 0V | 00:00:00 | 00:00:00 | 00:00:00 | |
| LZ4TU-5 | 2026-09-01 00:52:44 | 44.23203 | 23.22539 | 103° | 60km/h | 7161m | -18.4m/s | -16.3°C | 10.0% | 0hPa | 0V | 00:00:00 | 00:00:00 | 00:00:00 | |
| LZ4TU-5 | 2026-09-01 00:52:27 | 44.23231 | 23.22176 | 93° | 64km/h | 7441m | -17.6m/s | -18.3°C | 19.9% | 0hPa | 0V | 00:00:00 | 00:00:00 | 00:00:00 | |
| LZ4TU-5 | 2026-09-01 00:52:24 | 44.23234 | 23.22085 | 93° | 64km/h | 7513m | -17.9m/s | -18.9°C | 20.3% | 0hPa | 0V | 00:00:00 | 00:00:00 | 00:00:00 | |
| LZ4TU-5 | 2026-09-01 00:43:55 | 44.23826 | 23.08905 | 87° | 26km/h | 19601m | -36.5m/s | -55.6°C | 0.0% | 0hPa | 0V | 00:00:00 | 00:00:00 | 00:00:00 | |
| LZ4TU-5 | 2026-09-01 00:41:19 | 44.23643 | 23.08742 | 68° | 4km/h | 26220m | -50.8m/s | -49.4°C | 0.0% | 0hPa | 0V | 00:00:00 | 00:00:00 | 00:00:00 | |
| LZ4TU-5 | 2026-09-01 00:41:15 | 44.23644 | 23.08734 | 119° | 5km/h | 26419m | -54.2m/s | -49.2°C | 0.0% | 0hPa | 0V | 00:00:00 | 00:00:00 | 00:00:00 | |
| LZ4TU-5 | 2026-09-01 00:41:10 | 44.23644 | 23.08732 | 317° | 7km/h | 26679m | -57.1m/s | -48.7°C | 0.0% | 0hPa | 0V | 00:00:00 | 00:00:00 | 00:00:00 | |
| LZ4TU-5 | 2026-09-01 00:41:05 | 44.23636 | 23.08740 | 337° | 9km/h | 26963m | -57.6m/s | -47.0°C | 0% | 0hPa | 0V | 00:00:00 | 00:00:00 | 00:00:00 | |
| LZ3DJ-18 | 2026-09-01 00:39:41 | 44.23584 | 23.08846 | 313° | 20km/h | 31391m | 8.7m/s | -40.6°C | 0.0% | 0hPa | 0V | 00:00:00 | 00:00:00 | 00:00:00 | |
| LZ4TU-5 | 2026-09-01 00:39:18 | 44.23540 | 23.08951 | 339° | 22km/h | 31222m | 7.4m/s | -40.7°C | 0.0% | 0hPa | 0V | 00:00:00 | 00:00:00 | 00:00:00 | |
| LZ3DJ-18 | 2026-09-01 00:39:15 | 44.23534 | 23.08972 | 249° | 16km/h | 31191m | 8.4m/s | -40.6°C | 0.0% | 0hPa | 0V | 00:00:00 | 00:00:00 | 00:00:00 | |
| LZ4TU-5 | 2026-09-01 00:39:13 | 44.23535 | 23.08976 | 251° | 9km/h | 31184m | 7.2m/s | -40.6°C | 0.0% | 0hPa | 0V | 00:00:00 | 00:00:00 | 00:00:00 | |
| LZ4TU-5 | 2026-09-01 00:39:04 | 44.23492 | 23.09008 | 271° | 9km/h | 31117m | 6.9m/s | -40.3°C | 0.0% | 0hPa | 0V | 00:00:00 | 00:00:00 | 00:00:00 | |
| LZ4TU-5 | 2026-09-01 00:38:59 | 44.23486 | 23.09035 | 345° | 16km/h | 31080m | 8.1m/s | -40.2°C | 0.0% | 0hPa | 0V | 00:00:00 | 00:00:00 | 00:00:00 | |
| LZ3DJ-18 | 2026-09-01 00:38:54 | 44.23459 | 23.09039 | 323° | 24km/h | 31043m | 8.7m/s | -40.1°C | 0.0% | 0hPa | 0V | 00:00:00 | 00:00:00 | 00:00:00 | |
| LZ3DJ-18 | 2026-09-01 00:38:33 | 44.23439 | 23.09122 | 265° | 20km/h | 30883m | 6.5m/s | -39.9°C | 0.0% | 0hPa | 0V | 00:00:00 | 00:00:00 | 00:00:00 | |
| LZ3DJ-18 | 2026-09-01 00:38:12 | 44.23427 | 23.09219 | 204° | 22km/h | 30725m | 8.6m/s | -40.3°C | 0.0% | 0hPa | 0V | 00:00:00 | 00:00:00 | 00:00:00 | |
| LZ3DJ-18 | 2026-09-01 00:37:49 | 44.23412 | 23.09254 | 347° | 11km/h | 30562m | 7.5m/s | -41.6°C | 0.0% | 0hPa | 0V | 00:00:00 | 00:00:00 | 00:00:00 | |
| LZ3DJ-18 | 2026-09-01 00:37:28 | 44.23373 | 23.09313 | 10° | 38km/h | 30411m | 6.7m/s | -43.9°C | 0.0% | 0hPa | 0V | 00:00:00 | 00:00:00 | 00:00:00 | |
| LZ4TU-5 | 2026-09-01 00:37:20 | 44.23356 | 23.09371 | 274° | 26km/h | 30352m | 7.3m/s | -44.4°C | 0.0% | 0hPa | 0V | 00:00:00 | 00:00:00 | 00:00:00 | |
| LZ4TU-5 | 2026-09-01 00:37:15 | 44.23332 | 23.09402 | 344° | 24km/h | 30317m | 5.4m/s | -44.9°C | 0.0% | 0hPa | 0V | 00:00:00 | 00:00:00 | 00:00:00 | |
| LZ4TU-5 | 2026-09-01 00:37:05 | 44.23325 | 23.09479 | 350° | 18km/h | 30248m | 7.0m/s | -44.8°C | 0.0% | 0hPa | 0V | 00:00:00 | 00:00:00 | 00:00:00 | |
| LZ3DJ-18 | 2026-09-01 00:37:03 | 44.23319 | 23.09487 | 282° | 22km/h | 30233m | 7.6m/s | -44.7°C | 0.0% | 0hPa | 0V | 00:00:00 | 00:00:00 | 00:00:00 | |
| LZ4TU-5 | 2026-09-01 00:37:00 | 44.23323 | 23.09518 | 259° | 35km/h | 30210m | 7.1m/s | -44.6°C | 0.0% | 0hPa | 0V | 00:00:00 | 00:00:00 | 00:00:00 | |
| LZ4TU-5 | 2026-09-01 00:35:26 | 44.23486 | 23.10078 | 248° | 42km/h | 29568m | 3.8m/s | -44.4°C | 0.0% | 0hPa | 0V | 00:00:00 | 00:00:00 | 00:00:00 | |
| LZ4TU-5 | 2026-09-01 00:35:21 | 44.23497 | 23.10098 | 106° | 20km/h | 29542m | 8.8m/s | -44.5°C | 0.0% | 0hPa | 0V | 00:00:00 | 00:00:00 | 00:00:00 | |
| LZ4TU-5 | 2026-09-01 00:35:11 | 44.23534 | 23.10100 | 189° | 20km/h | 29477m | 5.7m/s | -44.7°C | 0.0% | 0hPa | 0V | 00:00:00 | 00:00:00 | 00:00:00 | |
| LZ4TU-5 | 2026-09-01 00:35:06 | 44.23545 | 23.10088 | 125° | 11km/h | 29442m | 6.0m/s | -44.8°C | 0.0% | 0hPa | 0V | 00:00:00 | 00:00:00 | 00:00:00 | |
| LZ3DJ-18 | 2026-09-01 00:33:34 | 44.23765 | 23.10149 | 324° | 4km/h | 28812m | 9.5m/s | -46.5°C | 0.0% | 0hPa | 0V | 00:00:00 | 00:00:00 | 00:00:00 | |
| LZ4TU-5 | 2026-09-01 00:33:31 | 44.23761 | 23.10158 | 248° | 13km/h | 28793m | 7.1m/s | -46.6°C | 0.0% | 0hPa | 0V | 00:00:00 | 00:00:00 | 00:00:00 | |
| LZ4TU-5 | 2026-09-01 00:33:27 | 44.23783 | 23.10160 | 166° | 27km/h | 28764m | 6.2m/s | -46.8°C | 0.0% | 0hPa | 0V | 00:00:00 | 00:00:00 | 00:00:00 | |
| LZ4TU-5 | 2026-09-01 00:33:17 | 44.23817 | 23.10183 | 178° | 33km/h | 28689m | 9.6m/s | -47.0°C | 0.0% | 0hPa | 0V | 00:00:00 | 00:00:00 | 00:00:00 | |
| LZ3DJ-18 | 2026-09-01 00:33:13 | 44.23842 | 23.10180 | 141° | 7km/h | 28659m | 9.0m/s | -46.9°C | 0.0% | 0hPa | 0V | 00:00:00 | 00:00:00 | 00:00:00 | |
| LZ3DJ-18 | 2026-09-01 00:32:51 | 44.23928 | 23.10173 | 154° | 13km/h | 28496m | 6.6m/s | -47.4°C | 0.0% | 0hPa | 0V | 00:00:00 | 00:00:00 | 00:00:00 | |
| LZ3DJ-18 | 2026-09-01 00:32:17 | 44.23982 | 23.10063 | 113° | 9km/h | 28245m | 7.7m/s | -47.3°C | 0.0% | 0hPa | 0V | 00:00:00 | 00:00:00 | 00:00:00 | |
| LZ3DJ-18 | 2026-09-01 00:31:57 | 44.23946 | 23.09976 | 68° | 7km/h | 28096m | 8.1m/s | -47.9°C | 0.0% | 0hPa | 0V | 00:00:00 | 00:00:00 | 00:00:00 | |
| LZ4TU-5 | 2026-09-01 00:31:39 | 44.23894 | 23.09976 | 15° | 4km/h | 27971m | 10.0m/s | -48.4°C | 0.0% | 0hPa | 0V | 00:00:00 | 00:00:00 | 00:00:00 | |
| LZ4TU-5 | 2026-09-01 00:31:35 | 44.23877 | 23.09978 | 12° | 15km/h | 27936m | 7.4m/s | -48.2°C | 0.0% | 0hPa | 0V | 00:00:00 | 00:00:00 | 00:00:00 | |
| LZ3DJ-18 | 2026-09-01 00:31:33 | 44.23872 | 23.09977 | 337° | 7km/h | 27923m | 8.2m/s | -48.2°C | 0.0% | 0hPa | 0V | 00:00:00 | 00:00:00 | 00:00:00 | |
| LZ4TU-5 | 2026-09-01 00:31:25 | 44.23847 | 23.09995 | 360° | 18km/h | 27862m | 6.3m/s | -48.0°C | 0.0% | 0hPa | 0V | 00:00:00 | 00:00:00 | 00:00:00 | |
| LZ4TU-5 | 2026-09-01 00:31:20 | 44.23832 | 23.09994 | 308° | 7km/h | 27827m | 4.9m/s | -48.1°C | 0.0% | 0hPa | 0V | 00:00:00 | 00:00:00 | 00:00:00 | |
| LZ3DJ-18 | 2026-09-01 00:31:11 | 44.23815 | 23.10001 | 32° | 16km/h | 27761m | 7.3m/s | -48.0°C | 0.0% | 0hPa | 0V | 00:00:00 | 00:00:00 | 00:00:00 | |
| LZ3DJ-18 | 2026-09-01 00:30:47 | 44.23749 | 23.10056 | 32° | 16km/h | 27592m | 7.2m/s | -47.3°C | 0.0% | 0hPa | 0V | 00:00:00 | 00:00:00 | 00:00:00 | |
| LZ3DJ-18 | 2026-09-01 00:30:25 | 44.23667 | 23.10054 | 132° | 9km/h | 27440m | 6.5m/s | -46.8°C | 0.0% | 0hPa | 0V | 00:00:00 | 00:00:00 | 00:00:00 | |
| LZ4TU-5 | 2026-09-01 00:29:47 | 44.23602 | 23.10055 | 349° | 13km/h | 27185m | 6.5m/s | -47.0°C | 0.0% | 0hPa | 0V | 00:00:00 | 00:00:00 | 00:00:00 | |
| LZ4TU-5 | 2026-09-01 00:29:42 | 44.23579 | 23.10071 | 333° | 18km/h | 27151m | 5.3m/s | -47.2°C | 0.0% | 0hPa | 0V | 00:00:00 | 00:00:00 | 00:00:00 | |
| LZ4TU-5 | 2026-09-01 00:29:32 | 44.23564 | 23.10086 | 337° | 29km/h | 27082m | 6.8m/s | -47.8°C | 0.0% | 0hPa | 0V | 00:00:00 | 00:00:00 | 00:00:00 | |
| LZ4TU-5 | 2026-09-01 00:29:27 | 44.23557 | 23.10097 | 181° | 16km/h | 27049m | 6.7m/s | -47.9°C | 0.0% | 0hPa | 0V | 00:00:00 | 00:00:00 | 00:00:00 | |
| LZ4TU-5 | 2026-09-01 00:27:19 | 44.23469 | 23.10127 | 62° | 20km/h | 26163m | 6.5m/s | -51.0°C | 0.0% | 0hPa | 0V | 00:00:00 | 00:00:00 | 00:00:00 | |
| LZ4TU-5 | 2026-09-01 00:27:15 | 44.23465 | 23.10108 | 119° | 4km/h | 26135m | 6.1m/s | -51.0°C | 0.0% | 0hPa | 0V | 00:00:00 | 00:00:00 | 00:00:00 | |
| LZ4TU-5 | 2026-09-01 00:27:05 | 44.23441 | 23.10065 | 54° | 13km/h | 26064m | 8.2m/s | -50.9°C | 0.0% | 0hPa | 0V | 00:00:00 | 00:00:00 | 00:00:00 | |
| LZ4TU-5 | 2026-09-01 00:27:00 | 44.23435 | 23.10042 | 43° | 26km/h | 26029m | 6.1m/s | -50.9°C | 0.0% | 0hPa | 0V | 00:00:00 | 00:00:00 | 00:00:00 | |
| LZ4TU-5 | 2026-09-01 00:25:30 | 44.23211 | 23.09944 | 346° | 31km/h | 25430m | 4.9m/s | -51.5°C | 0.0% | 0hPa | 0V | 00:00:00 | 00:00:00 | 00:00:00 | |
| LZ4TU-5 | 2026-09-01 00:25:26 | 44.23191 | 23.09940 | 44° | 9km/h | 25403m | 8.8m/s | -51.4°C | 0.0% | 0hPa | 0V | 00:00:00 | 00:00:00 | 00:00:00 | |
| LZ4TU-5 | 2026-09-01 00:25:16 | 44.23190 | 23.09940 | 328° | 18km/h | 25341m | 7.6m/s | -51.5°C | 0.0% | 0hPa | 0V | 00:00:00 | 00:00:00 | 00:00:00 | |
| LZ4TU-5 | 2026-09-01 00:25:11 | 44.23182 | 23.09942 | 254° | 9km/h | 25310m | 6.0m/s | -51.5°C | 0.0% | 0hPa | 0V | 00:00:00 | 00:00:00 | 00:00:00 | |
| LZ4TU-5 | 2026-09-01 00:23:39 | 44.23281 | 23.09816 | 91° | 13km/h | 24691m | 7.5m/s | -52.2°C | 0.0% | 0hPa | 0V | 00:00:00 | 00:00:00 | 00:00:00 | |
| LZ4TU-5 | 2026-09-01 00:23:35 | 44.23278 | 23.09797 | 117° | 7km/h | 24666m | 5.1m/s | -52.4°C | 0.0% | 0hPa | 0V | 00:00:00 | 00:00:00 | 00:00:00 | |
| LZ4TU-5 | 2026-09-01 00:23:25 | 44.23272 | 23.09762 | 56° | 11km/h | 24597m | 9.2m/s | -52.7°C | 0.0% | 0hPa | 0V | 00:00:00 | 00:00:00 | 00:00:00 | |
| LZ4TU-5 | 2026-09-01 00:23:20 | 44.23264 | 23.09742 | 80° | 7km/h | 24560m | 6.9m/s | -52.7°C | 0.0% | 0hPa | 0V | 00:00:00 | 00:00:00 | 00:00:00 | |
| LZ4TU-5 | 2026-09-01 00:21:50 | 44.23162 | 23.09765 | 277° | 22km/h | 23955m | 6.9m/s | -54.0°C | 0.0% | 0hPa | 0V | 00:00:00 | 00:00:00 | 00:00:00 | |
| LZ4TU-5 | 2026-09-01 00:21:45 | 44.23159 | 23.09801 | 283° | 15km/h | 23922m | 5.4m/s | -54.1°C | 0% | 0hPa | 0V | 00:00:00 | 00:00:00 | 00:00:00 | |
| LZ4TU-5 | 2026-09-01 00:21:35 | 44.23166 | 23.09812 | 316° | 9km/h | 23854m | 8.6m/s | -54.2°C | 0.0% | 0hPa | 0V | 00:00:00 | 00:00:00 | 00:00:00 | |
| LZ4TU-5 | 2026-09-01 00:21:30 | 44.23159 | 23.09823 | 343° | 11km/h | 23823m | 5.8m/s | -54.3°C | 0.0% | 0hPa | 0V | 00:00:00 | 00:00:00 | 00:00:00 | |
| LZ4TU-5 | 2026-09-01 00:19:58 | 44.23009 | 23.09875 | 147° | 7km/h | 23233m | 8.0m/s | -53.9°C | 0.0% | 0hPa | 0V | 00:00:00 | 00:00:00 | 00:00:00 | |
| LZ4TU-5 | 2026-09-01 00:19:53 | 44.23003 | 23.09864 | 38° | 22km/h | 23201m | 6.7m/s | -53.8°C | 0.0% | 0hPa | 0V | 00:00:00 | 00:00:00 | 00:00:00 | |
| LZ4TU-5 | 2026-09-01 00:19:44 | 44.22978 | 23.09823 | 28° | 13km/h | 23146m | 5.5m/s | -53.6°C | 0.0% | 0hPa | 0V | 00:00:00 | 00:00:00 | 00:00:00 | |
| LZ4TU-5 | 2026-09-01 00:19:39 | 44.22961 | 23.09804 | 42° | 22km/h | 23116m | 6.2m/s | -53.9°C | 0% | 0hPa | 0V | 00:00:00 | 00:00:00 | 00:00:00 | |
| LZ4TU-5 | 2026-09-01 00:17:58 | 44.22647 | 23.09921 | 360° | 20km/h | 22486m | 6.5m/s | -54.0°C | 0.0% | 0hPa | 0V | 00:00:00 | 00:00:00 | 00:00:00 | |
| LZ4TU-5 | 2026-09-01 00:17:53 | 44.22619 | 23.09930 | 348° | 13km/h | 22453m | 7.4m/s | -54.1°C | 0.0% | 0hPa | 0V | 00:00:00 | 00:00:00 | 00:00:00 | |
| LZ4TU-5 | 2026-09-01 00:17:43 | 44.22599 | 23.09938 | 326° | 22km/h | 22389m | 6.7m/s | -54.5°C | 0.0% | 0hPa | 0V | 00:00:00 | 00:00:00 | 00:00:00 | |
| LZ4TU-5 | 2026-09-01 00:17:38 | 44.22585 | 23.09951 | 17° | 15km/h | 22356m | 5.7m/s | -54.7°C | 0% | 0hPa | 0V | 00:00:00 | 00:00:00 | 00:00:00 | |
| LZ4TU-5 | 2026-09-01 00:16:08 | 44.22486 | 23.09864 | 359° | 15km/h | 21786m | 6.7m/s | -54.9°C | 0.0% | 0hPa | 0V | 00:00:00 | 00:00:00 | 00:00:00 | |
| LZ4TU-5 | 2026-09-01 00:16:03 | 44.22471 | 23.09863 | 318° | 2km/h | 21755m | 4.9m/s | -55.0°C | 0.0% | 0hPa | 0V | 00:00:00 | 00:00:00 | 00:00:00 | |
| LZ4TU-5 | 2026-09-01 00:15:54 | 44.22445 | 23.09887 | 345° | 11km/h | 21702m | 5.0m/s | -54.7°C | 0.0% | 0hPa | 0V | 00:00:00 | 00:00:00 | 00:00:00 | |
| LZ4TU-5 | 2026-09-01 00:15:49 | 44.22440 | 23.09903 | 309° | 15km/h | 21673m | 5.6m/s | -54.5°C | 0.0% | 0hPa | 0V | 00:00:00 | 00:00:00 | 00:00:00 | |
| LZ4TU-5 | 2026-09-01 00:14:18 | 44.22589 | 23.10050 | 128° | 16km/h | 21121m | 4.5m/s | -55.3°C | 0.0% | 0hPa | 0V | 00:00:00 | 00:00:00 | 00:00:00 | |
| LZ4TU-5 | 2026-09-01 00:14:13 | 44.22600 | 23.10033 | 109° | 16km/h | 21095m | 8.9m/s | -55.3°C | 0.0% | 0hPa | 0V | 00:00:00 | 00:00:00 | 00:00:00 | |
| LZ4TU-5 | 2026-09-01 00:14:03 | 44.22603 | 23.09975 | 110° | 13km/h | 21036m | 3.2m/s | -55.7°C | 0.0% | 0hPa | 0V | 00:00:00 | 00:00:00 | 00:00:00 | |
| LZ4TU-5 | 2026-09-01 00:13:58 | 44.22595 | 23.09952 | 86° | 9km/h | 21004m | 4.9m/s | -55.8°C | 0.0% | 0hPa | 0V | 00:00:00 | 00:00:00 | 00:00:00 | |
| LZ4TU-5 | 2026-09-01 00:12:23 | 44.22556 | 23.09688 | 65° | 16km/h | 20407m | 6.4m/s | -55.3°C | 0.0% | 0hPa | 0V | 00:00:00 | 00:00:00 | 00:00:00 | |
| LZ4TU-5 | 2026-09-01 00:12:14 | 44.22547 | 23.09653 | 54° | 31km/h | 20351m | 6.2m/s | -55.4°C | 0.0% | 0hPa | 0V | 00:00:00 | 00:00:00 | 00:00:00 | |
| LZ4TU-5 | 2026-09-01 00:12:09 | 44.22528 | 23.09615 | 30° | 9km/h | 20321m | 6.4m/s | -55.3°C | 0.0% | 0hPa | 0V | 00:00:00 | 00:00:00 | 00:00:00 | |
| LZ4TU-5 | 2026-09-01 00:10:41 | 44.22276 | 23.09357 | 18° | 13km/h | 19782m | 4.3m/s | -55.8°C | 0.0% | 0hPa | 0V | 00:00:00 | 00:00:00 | 00:00:00 | |
| LZ4TU-5 | 2026-09-01 00:10:36 | 44.22266 | 23.09343 | 58° | 11km/h | 19752m | 4.8m/s | -56.0°C | 0.0% | 0hPa | 0V | 00:00:00 | 00:00:00 | 00:00:00 | |
| LZ4TU-5 | 2026-09-01 00:10:26 | 44.22236 | 23.09277 | 61° | 27km/h | 19692m | 2.5m/s | -56.1°C | 0.0% | 0hPa | 0V | 00:00:00 | 00:00:00 | 00:00:00 | |
| LZ4TU-5 | 2026-09-01 00:10:22 | 44.22230 | 23.09245 | 74° | 26km/h | 19667m | 6.7m/s | -56.1°C | 0.0% | 0hPa | 0V | 00:00:00 | 00:00:00 | 00:00:00 | |
| LZ3DJ-18 | 2026-09-01 00:09:01 | 44.21682 | 23.08795 | 26° | 20km/h | 19193m | 6.2m/s | -55.4°C | 0.0% | 0hPa | 0V | 00:00:00 | 00:00:00 | 00:00:00 | |
| LZ4TU-5 | 2026-09-01 00:08:51 | 44.21640 | 23.08749 | 26° | 16km/h | 19131m | 4.8m/s | -56.0°C | 0.0% | 0hPa | 0V | 00:00:00 | 00:00:00 | 00:00:00 | |
| LZ4TU-5 | 2026-09-01 00:08:46 | 44.21623 | 23.08731 | 41° | 26km/h | 19101m | 5.5m/s | -56.0°C | 0.0% | 0hPa | 0V | 00:00:00 | 00:00:00 | 00:00:00 | |
| LZ3DJ-18 | 2026-09-01 00:08:41 | 44.21607 | 23.08692 | 77° | 24km/h | 19075m | 5.4m/s | -56.3°C | 0.0% | 0hPa | 0V | 00:00:00 | 00:00:00 | 00:00:00 | |
| LZ4TU-5 | 2026-09-01 00:08:33 | 44.21579 | 23.08658 | 33° | 15km/h | 19029m | 5.1m/s | -56.5°C | 0.0% | 0hPa | 0V | 00:00:00 | 00:00:00 | 00:00:00 | |
| LZ4TU-5 | 2026-09-01 00:08:28 | 44.21568 | 23.08636 | 34° | 16km/h | 19000m | 4.8m/s | -56.6°C | 0.0% | 0hPa | 0V | 00:00:00 | 00:00:00 | 00:00:00 | |
| LZ4TU-5 | 2026-09-01 00:08:23 | 44.21557 | 23.08638 | 344° | 4km/h | 18971m | 4.0m/s | -56.5°C | 0.0% | 0hPa | 0V | 00:00:00 | 00:00:00 | 00:00:00 | |
| LZ3DJ-18 | 2026-09-01 00:08:18 | 44.21557 | 23.08628 | 68° | 15km/h | 18942m | 5.1m/s | -56.5°C | 0.0% | 0hPa | 0V | 00:00:00 | 00:00:00 | 00:00:00 | |
| LZ3DJ-18 | 2026-09-01 00:07:55 | 44.21548 | 23.08597 | 84° | 16km/h | 18811m | 5.1m/s | -57.4°C | 0.0% | 0hPa | 0V | 00:00:00 | 00:00:00 | 00:00:00 | |
| LZ3DJ-18 | 2026-09-01 00:07:34 | 44.21551 | 23.08560 | 0° | 0km/h | 18686m | 6.4m/s | -58.1°C | 0.0% | 0hPa | 0V | 00:00:00 | 00:00:00 | 00:00:00 | |
| LZ3DJ-18 | 2026-09-01 00:07:12 | 44.21558 | 23.08519 | 140° | 7km/h | 18546m | 7.1m/s | -58.2°C | 0.0% | 0hPa | 0V | 00:00:00 | 00:00:00 | 00:00:00 | |
| LZ4TU-5 | 2026-09-01 00:06:57 | 44.21565 | 23.08468 | 98° | 11km/h | 18461m | 6.1m/s | -58.2°C | 0.0% | 0hPa | 0V | 00:00:00 | 00:00:00 | 00:00:00 | |
| LZ4TU-5 | 2026-09-01 00:06:52 | 44.21566 | 23.08438 | 103° | 18km/h | 18432m | 6.5m/s | -58.2°C | 0% | 0hPa | 0V | 00:00:00 | 00:00:00 | 00:00:00 | |
| LZ3DJ-18 | 2026-09-01 00:06:51 | 44.21568 | 23.08431 | 116° | 20km/h | 18426m | 5.2m/s | -58.1°C | 0.0% | 0hPa | 0V | 00:00:00 | 00:00:00 | 00:00:00 | |
| LZ4TU-5 | 2026-09-01 00:06:38 | 44.21581 | 23.08350 | 108° | 24km/h | 18349m | 5.2m/s | -58.1°C | 0.0% | 0hPa | 0V | 00:00:00 | 00:00:00 | 00:00:00 | |
| LZ3DJ-18 | 2026-09-01 00:06:30 | 44.21597 | 23.08306 | 113° | 16km/h | 18303m | 6.6m/s | -57.9°C | 0.0% | 0hPa | 0V | 00:00:00 | 00:00:00 | 00:00:00 | |
| LZ4TU-5 | 2026-09-01 00:05:09 | 44.21457 | 23.07682 | 53° | 27km/h | 17827m | 4.5m/s | -59.4°C | 0.0% | 0hPa | 0V | 00:00:00 | 00:00:00 | 00:00:00 | |
| LZ4TU-5 | 2026-09-01 00:04:55 | 44.21421 | 23.07624 | 46° | 20km/h | 17756m | 4.3m/s | -58.8°C | 0.0% | 0hPa | 0V | 00:00:00 | 00:00:00 | 00:00:00 | |
| LZ4TU-5 | 2026-09-01 00:04:51 | 44.21401 | 23.07598 | 38° | 15km/h | 17728m | 4.7m/s | -58.6°C | 0% | 0hPa | 0V | 00:00:00 | 00:00:00 | 00:00:00 | |
| LZ4TU-5 | 2026-09-01 00:03:39 | 44.21277 | 23.07084 | 59° | 16km/h | 17257m | 7.2m/s | -60.1°C | 0.0% | 0hPa | 0V | 00:00:00 | 00:00:00 | 00:00:00 | |
| LZ4TU-5 | 2026-09-01 00:03:36 | 44.21270 | 23.07060 | 76° | 11km/h | 17236m | 4.8m/s | -60.2°C | 0.0% | 0hPa | 0V | 00:00:00 | 00:00:00 | 00:00:00 | |
| LZ4TU-5 | 2026-09-01 00:03:31 | 44.21271 | 23.07035 | 133° | 15km/h | 17174m | 5.7m/s | -60.2°C | 0.0% | 0hPa | 0V | 00:00:00 | 00:00:00 | 00:00:00 | |
| LZ4TU-5 | 2026-09-01 00:03:28 | 44.21276 | 23.07018 | 0° | 0km/h | 17145m | 5.4m/s | -60.0°C | 0.0% | 0hPa | 0V | 00:00:00 | 00:00:00 | 00:00:00 | |
| LZ4TU-5 | 2026-09-01 00:01:59 | 44.21518 | 23.06446 | 119° | 29km/h | 16646m | 7.2m/s | -59.9°C | 0.8% | 0hPa | 0V | 00:00:00 | 00:00:00 | 00:00:00 | |
| LZ4TU-5 | 2026-09-01 00:01:49 | 44.21544 | 23.06384 | 126° | 60km/h | 16620m | 6.1m/s | -60.0°C | 0.9% | 0hPa | 0V | 00:00:00 | 00:00:00 | 00:00:00 | |
| LZ4TU-5 | 2026-09-01 00:01:38 | 44.21608 | 23.06238 | 119° | 62km/h | 16565m | 5.8m/s | -60.1°C | 1.2% | 0hPa | 0V | 00:00:00 | 00:00:00 | 00:00:00 | |
| LZ4TU-5 | 2026-09-01 00:01:32 | 44.21640 | 23.06151 | 124° | 60km/h | 16536m | 4.6m/s | -60.0°C | 1.2% | 0hPa | 0V | 00:00:00 | 00:00:00 | 00:00:00 | |
| LZ4TU-5 | 2026-08-31 23:59:58 | 44.21610 | 23.04330 | 55° | 62km/h | 16049m | 5.7m/s | -61.6°C | 2.8% | 0hPa | 0V | 00:00:00 | 00:00:00 | 00:00:00 | |
| LZ4TU-5 | 2026-08-31 23:59:53 | 44.21568 | 23.04234 | 68° | 64km/h | 16018m | 5.7m/s | -61.4°C | 3.0% | 0hPa | 0V | 00:00:00 | 00:00:00 | 00:00:00 | |
| LZ4TU-5 | 2026-08-31 23:59:43 | 44.21511 | 23.04050 | 62° | 55km/h | 15961m | 5.6m/s | -61.0°C | 3.2% | 0hPa | 0V | 00:00:00 | 00:00:00 | 00:00:00 | |
| LZ4TU-5 | 2026-08-31 23:59:38 | 44.21481 | 23.03941 | 75° | 60km/h | 15933m | 4.5m/s | -61.0°C | 3.4% | 0hPa | 0V | 00:00:00 | 00:00:00 | 00:00:00 | |
| LZ4TU-5 | 2026-08-31 23:58:13 | 44.21184 | 23.02373 | 83° | 69km/h | 15460m | 4.7m/s | -59.5°C | 7.0% | 0hPa | 0V | 00:00:00 | 00:00:00 | 00:00:00 | |
| LZ4TU-5 | 2026-08-31 23:58:08 | 44.21177 | 23.02264 | 91° | 51km/h | 15433m | 4.5m/s | -59.4°C | 7.3% | 0hPa | 0V | 00:00:00 | 00:00:00 | 00:00:00 | |
| LZ4TU-5 | 2026-08-31 23:57:58 | 44.21133 | 23.02064 | 79° | 57km/h | 15376m | 7.1m/s | -59.2°C | 8.0% | 0hPa | 0V | 00:00:00 | 00:00:00 | 00:00:00 | |
| LZ4TU-5 | 2026-08-31 23:57:53 | 44.21128 | 23.01983 | 74° | 49km/h | 15351m | 5.3m/s | -59.0°C | 8.4% | 0hPa | 0V | 00:00:00 | 00:00:00 | 00:00:00 | |
| LZ4TU-5 | 2026-08-31 23:56:25 | 44.20803 | 23.00260 | 101° | 46km/h | 14854m | 6.0m/s | -60.6°C | 15.0% | 0hPa | 0V | 00:00:00 | 00:00:00 | 00:00:00 | |
| LZ4TU-5 | 2026-08-31 23:56:21 | 44.20807 | 23.00179 | 85° | 69km/h | 14833m | 6.0m/s | -60.6°C | 15.4% | 0hPa | 0V | 00:00:00 | 00:00:00 | 00:00:00 | |
| LZ4TU-5 | 2026-08-31 23:56:11 | 44.20782 | 23.00011 | 90° | 60km/h | 14775m | 7.2m/s | -60.8°C | 16.2% | 0hPa | 0V | 00:00:00 | 00:00:00 | 00:00:00 | |
| LZ4TU-5 | 2026-08-31 23:56:06 | 44.20786 | 22.99894 | 96° | 53km/h | 14743m | 6.2m/s | -60.8°C | 16.4% | 0hPa | 0V | 00:00:00 | 00:00:00 | 00:00:00 | |
| LZ4TU-5 | 2026-08-31 23:54:40 | 44.20827 | 22.97849 | 87° | 82km/h | 14223m | 5.9m/s | -63.5°C | 20.2% | 0hPa | 0V | 00:00:00 | 00:00:00 | 00:00:00 | |
| LZ4TU-5 | 2026-08-31 23:54:35 | 44.20819 | 22.97715 | 90° | 62km/h | 14195m | 3.9m/s | -63.4°C | 20.3% | 0hPa | 0V | 00:00:00 | 00:00:00 | 00:00:00 | |
| LZ4TU-5 | 2026-08-31 23:54:25 | 44.20805 | 22.97455 | 88° | 66km/h | 14141m | 6.2m/s | -63.3°C | 20.4% | 0hPa | 0V | 00:00:00 | 00:00:00 | 00:00:00 | |
| LZ4TU-5 | 2026-08-31 23:54:20 | 44.20798 | 22.97348 | 89° | 64km/h | 14113m | 7.6m/s | -63.2°C | 0% | 0hPa | 0V | 00:00:00 | 00:00:00 | 00:00:00 | |
| LZ4TU-5 | 2026-08-31 23:52:48 | 44.20908 | 22.95018 | 99° | 80km/h | 13580m | 5.3m/s | -61.6°C | 23.4% | 0hPa | 0V | 00:00:00 | 00:00:00 | 00:00:00 | |
| LZ4TU-5 | 2026-08-31 23:52:43 | 44.20908 | 22.94885 | 93° | 62km/h | 13553m | 4.8m/s | -61.5°C | 23.6% | 0hPa | 0V | 00:00:00 | 00:00:00 | 00:00:00 | |
| LZ4TU-5 | 2026-08-31 23:52:34 | 44.20926 | 22.94642 | 85° | 80km/h | 13500m | 5.4m/s | -61.3°C | 24.1% | 0hPa | 0V | 00:00:00 | 00:00:00 | 00:00:00 | |
| LZ4TU-5 | 2026-08-31 23:52:29 | 44.20933 | 22.94517 | 115° | 78km/h | 13470m | 5.2m/s | -61.1°C | 24.4% | 0hPa | 0V | 00:00:00 | 00:00:00 | 00:00:00 | |
| LZ4TU-5 | 2026-08-31 23:50:44 | 44.21237 | 22.91180 | 94° | 100km/h | 12855m | 6.0m/s | -58.7°C | 27.5% | 0hPa | 0V | 00:00:00 | 00:00:00 | 00:00:00 | |
| LZ4TU-5 | 2026-08-31 23:50:38 | 44.21249 | 22.91013 | 96° | 97km/h | 12826m | 5.6m/s | -58.7°C | 27.7% | 0hPa | 0V | 00:00:00 | 00:00:00 | 00:00:00 | |
| LZ4TU-5 | 2026-08-31 23:50:36 | 44.21273 | 22.90677 | 99° | 106km/h | 12772m | 5.5m/s | -58.4°C | 27.8% | 0hPa | 0V | 00:00:00 | 00:00:00 | 00:00:00 | |
| LZ4TU-5 | 2026-08-31 23:50:34 | 44.21292 | 22.90502 | 100° | 91km/h | 12743m | 4.4m/s | -58.2°C | 27.8% | 0hPa | 0V | 00:00:00 | 00:00:00 | 00:00:00 | |
| LZ4TU-5 | 2026-08-31 23:48:49 | 44.21804 | 22.87105 | 106° | 124km/h | 12168m | 5.0m/s | -55.2°C | 30.2% | 0hPa | 0V | 00:00:00 | 00:00:00 | 00:00:00 | |
| LZ4TU-5 | 2026-08-31 23:48:45 | 44.21834 | 22.86944 | 103° | 119km/h | 12145m | 7.2m/s | -55.0°C | 30.0% | 0hPa | 0V | 00:00:00 | 00:00:00 | 00:00:00 | |
| LZ4TU-5 | 2026-08-31 23:48:35 | 44.21921 | 22.86539 | 104° | 115km/h | 12081m | 5.9m/s | -54.4°C | 29.7% | 0hPa | 0V | 00:00:00 | 00:00:00 | 00:00:00 | |
| LZ4TU-5 | 2026-08-31 23:48:31 | 44.21952 | 22.86340 | 101° | 122km/h | 12050m | 7.1m/s | -54.2°C | 29.5% | 0hPa | 0V | 00:00:00 | 00:00:00 | 00:00:00 | |
| LZ4TU-5 | 2026-08-31 23:46:57 | 44.22532 | 22.82550 | 95° | 120km/h | 11465m | 5.2m/s | -49.9°C | 28.2% | 0hPa | 0V | 00:00:00 | 00:00:00 | 00:00:00 | |
| LZ4TU-5 | 2026-08-31 23:46:53 | 44.22548 | 22.82394 | 104° | 104km/h | 11442m | 4.4m/s | -49.7°C | 28.3% | 0hPa | 0V | 00:00:00 | 00:00:00 | 00:00:00 | |
| LZ4TU-5 | 2026-08-31 23:46:45 | 44.22585 | 22.82092 | 99° | 110km/h | 11391m | 7.6m/s | -49.4°C | 28.6% | 0hPa | 0V | 00:00:00 | 00:00:00 | 00:00:00 | |
| LZ4TU-5 | 2026-08-31 23:46:40 | 44.22618 | 22.81886 | 108° | 135km/h | 11358m | 6.8m/s | -49.3°C | 28.8% | 0hPa | 0V | 00:00:00 | 00:00:00 | 00:00:00 | |
| LZ4TU-5 | 2026-08-31 23:45:17 | 44.23000 | 22.78802 | 100° | 97km/h | 10840m | 4.2m/s | -45.4°C | 28.1% | 0hPa | 0V | 00:00:00 | 00:00:00 | 00:00:00 | |
| LZ4TU-5 | 2026-08-31 23:45:10 | 44.23007 | 22.78623 | 95° | 100km/h | 10810m | 5.9m/s | -45.2°C | 28.3% | 0hPa | 0V | 00:00:00 | 00:00:00 | 00:00:00 | |
| LZ4TU-5 | 2026-08-31 23:45:05 | 44.23034 | 22.78456 | 103° | 104km/h | 10783m | 5.2m/s | -45.0°C | 90.3% | 0hPa | 0V | 00:00:00 | 00:00:00 | 00:00:00 | |
| LZ4TU-5 | 2026-08-31 23:44:55 | 44.23052 | 22.78105 | 101° | 80km/h | 10730m | 7.9m/s | -44.6°C | 29.4% | 0hPa | 0V | 00:00:00 | 00:00:00 | 00:00:00 | |
| LZ4TU-5 | 2026-08-31 23:44:50 | 44.23063 | 22.77923 | 91° | 102km/h | 10691m | 6.1m/s | -44.3°C | 30.1% | 0hPa | 0V | 00:00:00 | 00:00:00 | 00:00:00 | |
| LZ4TU-5 | 2026-08-31 23:43:30 | 44.23103 | 22.75386 | 88° | 77km/h | 10202m | 7.5m/s | -40.8°C | 27.5% | 0hPa | 0V | 00:00:00 | 00:00:00 | 00:00:00 | |
| LZ4TU-5 | 2026-08-31 23:43:25 | 44.23085 | 22.75242 | 91° | 99km/h | 10169m | 6.5m/s | -40.5°C | 0% | 0hPa | 0V | 00:00:00 | 00:00:00 | 00:00:00 | |
| LZ4TU-5 | 2026-08-31 23:43:15 | 44.23088 | 22.74933 | 89° | 89km/h | 10116m | 3.1m/s | -40.0°C | 27.1% | 0hPa | 0V | 00:00:00 | 00:00:00 | 00:00:00 | |
| LZ4TU-5 | 2026-08-31 23:43:10 | 44.23086 | 22.74756 | 86° | 91km/h | 10094m | 5.0m/s | -39.8°C | 27.2% | 0hPa | 0V | 00:00:00 | 00:00:00 | 00:00:00 | |
| LZ4TU-5 | 2026-08-31 23:41:45 | 44.23126 | 22.72193 | 84° | 93km/h | 9624m | 4.4m/s | -35.6°C | 21.2% | 0hPa | 0V | 00:00:00 | 00:00:00 | 00:00:00 | |
| LZ4TU-5 | 2026-08-31 23:41:41 | 44.23118 | 22.72070 | 88° | 77km/h | 9605m | 5.3m/s | -35.4°C | 21.4% | 0hPa | 0V | 00:00:00 | 00:00:00 | 00:00:00 | |
| LZ4TU-5 | 2026-08-31 23:40:15 | 44.23102 | 22.69510 | 79° | 77km/h | 9131m | 5.4m/s | -31.0°C | 18.5% | 0hPa | 0V | 00:00:00 | 00:00:00 | 00:00:00 | |
| LZ4TU-5 | 2026-08-31 23:40:10 | 44.23073 | 22.69356 | 85° | 102km/h | 9104m | 7.9m/s | -30.8°C | 18.3% | 0hPa | 0V | 00:00:00 | 00:00:00 | 00:00:00 | |
| LZ4TU-5 | 2026-08-31 23:38:40 | 44.23151 | 22.66619 | 95° | 93km/h | 8567m | 8.6m/s | -26.5°C | 12.4% | 0hPa | 0V | 00:00:00 | 00:00:00 | 00:00:00 | |
| LZ4TU-5 | 2026-08-31 23:36:54 | 44.23207 | 22.63915 | 86° | 88km/h | 7946m | 3.2m/s | -21.9°C | 14.8% | 0hPa | 0V | 00:00:00 | 00:00:00 | 00:00:00 | |
| LZ4TU-5 | 2026-08-31 23:36:49 | 44.23204 | 22.63797 | 107° | 58km/h | 7924m | 4.8m/s | -21.7°C | 14.7% | 0hPa | 0V | 00:00:00 | 00:00:00 | 00:00:00 | |
| LZ4TU-5 | 2026-08-31 23:35:33 | 44.23306 | 22.61874 | 106° | 71km/h | 7474m | 6.7m/s | -18.9°C | 18.0% | 0hPa | 0V | 00:00:00 | 00:00:00 | 00:00:00 | |
| LZ4TU-5 | 2026-08-31 23:35:28 | 44.23336 | 22.61790 | 115° | 46km/h | 7442m | 7.5m/s | -18.6°C | 18.0% | 0hPa | 0V | 00:00:00 | 00:00:00 | 00:00:00 | |
| LZ4TU-5 | 2026-08-31 23:34:07 | 44.23417 | 22.60099 | 120° | 51km/h | 6938m | 6.1m/s | -15.1°C | 41.0% | 0hPa | 0V | 00:00:00 | 00:00:00 | 00:00:00 | |
| LZ4TU-5 | 2026-08-31 23:34:02 | 44.23432 | 22.60048 | 79° | 42km/h | 6909m | 7.9m/s | -14.8°C | 41.3% | 0hPa | 0V | 00:00:00 | 00:00:00 | 00:00:00 | |
| LZ4TU-5 | 2026-08-31 23:32:40 | 44.23349 | 22.58894 | 92° | 18km/h | 6396m | 5.9m/s | -11.9°C | 21.7% | 0hPa | 0V | 00:00:00 | 00:00:00 | 00:00:00 | |
| LZ4TU-5 | 2026-08-31 23:32:36 | 44.23345 | 22.58862 | 81° | 24km/h | 6372m | 5.9m/s | -11.6°C | 18.9% | 0hPa | 0V | 00:00:00 | 00:00:00 | 00:00:00 | |
| LZ4TU-5 | 2026-08-31 23:31:27 | 44.23316 | 22.58010 | 100° | 27km/h | 5963m | 6.9m/s | -8.3°C | 19.3% | 0hPa | 0V | 00:00:00 | 00:00:00 | 00:00:00 | |
| LZ4TU-5 | 2026-08-31 23:31:23 | 44.23314 | 22.57964 | 90° | 47km/h | 5939m | 6.9m/s | -8.1°C | 19.6% | 0hPa | 0V | 00:00:00 | 00:00:00 | 00:00:00 | |
| LZ4TU-5 | 2026-08-31 23:31:18 | 44.23320 | 22.57896 | 61° | 18km/h | 5908m | 7.6m/s | -7.9°C | 20.0% | 0hPa | 0V | 00:00:00 | 00:00:00 | 00:00:00 | |
| LZ4TU-5 | 2026-08-31 23:31:13 | 44.23318 | 22.57852 | 115° | 46km/h | 5880m | 6.0m/s | -7.6°C | 19.8% | 0hPa | 0V | 00:00:00 | 00:00:00 | 00:00:00 | |
| LZ4TU-5 | 2026-08-31 23:30:03 | 44.23455 | 22.57260 | 159° | 37km/h | 5457m | 4.6m/s | -6.6°C | 45.8% | 0hPa | 0V | 00:00:00 | 00:00:00 | 00:00:00 | |
| LZ4TU-5 | 2026-08-31 23:29:58 | 44.23476 | 22.57206 | 115° | 53km/h | 5426m | 5.5m/s | -6.3°C | 38.0% | 0hPa | 0V | 00:00:00 | 00:00:00 | 00:00:00 | |
| LZ4TU-5 | 2026-08-31 23:28:47 | 44.23854 | 22.56326 | 98° | 42km/h | 5006m | 6.0m/s | -4.3°C | 31.7% | 0hPa | 0V | 00:00:00 | 00:00:00 | 00:00:00 | |
| LZ4TU-5 | 2026-08-31 23:28:41 | 44.23876 | 22.56263 | 130° | 27km/h | 4976m | 6.3m/s | -4.4°C | 32.6% | 0hPa | 0V | 00:00:00 | 00:00:00 | 00:00:00 | |
| LZ4TU-5 | 2026-08-31 23:28:36 | 44.23894 | 22.56206 | 116° | 38km/h | 4945m | 6.2m/s | -4.3°C | 0% | 0hPa | 0V | 00:00:00 | 00:00:00 | 00:00:00 | |
| LZ4TU-5 | 2026-08-31 23:27:25 | 44.24184 | 22.55315 | 94° | 35km/h | 4505m | 7.0m/s | -2.1°C | 27.8% | 0hPa | 0V | 00:00:00 | 00:00:00 | 00:00:00 | |
| LZ4TU-5 | 2026-08-31 23:27:20 | 44.24201 | 22.55236 | 125° | 37km/h | 4474m | 7.4m/s | -1.9°C | 33.8% | 0hPa | 0V | 00:00:00 | 00:00:00 | 00:00:00 | |
| LZ4TU-5 | 2026-08-31 23:26:10 | 44.24421 | 22.54416 | 118° | 29km/h | 4038m | 8.1m/s | 0.3°C | 78.1% | 0hPa | 0V | 00:00:00 | 00:00:00 | 00:00:00 | |
| LZ4TU-5 | 2026-08-31 23:26:06 | 44.24428 | 22.54377 | 105° | 29km/h | 4012m | 5.0m/s | 0.5°C | 77.7% | 0hPa | 0V | 00:00:00 | 00:00:00 | 00:00:00 | |
| LZ4TU-5 | 2026-08-31 23:24:56 | 44.24632 | 22.53657 | 54° | 4km/h | 3583m | 5.9m/s | 3.5°C | 66.6% | 0hPa | 0V | 00:00:00 | 00:00:00 | 00:00:00 | |
| LZ4TU-5 | 2026-08-31 23:24:52 | 44.24624 | 22.53633 | 92° | 37km/h | 3563m | 5.5m/s | 3.6°C | 0% | 0hPa | 0V | 00:00:00 | 00:00:00 | 00:00:00 | |
| LZ4TU-5 | 2026-08-31 23:23:19 | 44.24715 | 22.52783 | 87° | 26km/h | 2995m | 6.2m/s | 8.1°C | 78.8% | 0hPa | 0V | 00:00:00 | 00:00:00 | 00:00:00 | |
| LZ4TU-5 | 2026-08-31 23:23:14 | 44.24723 | 22.52744 | 78° | 29km/h | 2965m | 7.3m/s | 8.4°C | 76.4% | 0hPa | 0V | 00:00:00 | 00:00:00 | 00:00:00 | |
| LZ4TU-5 | 2026-08-31 23:22:12 | 44.24706 | 22.52197 | 89° | 20km/h | 2580m | 6.4m/s | 12.0°C | 62.6% | 0hPa | 0V | 00:00:00 | 00:00:00 | 00:00:00 | |
| LZ4TU-5 | 2026-08-31 23:22:07 | 44.24706 | 22.52159 | 108° | 24km/h | 2547m | 6.3m/s | 12.3°C | 61.3% | 0hPa | 0V | 00:00:00 | 00:00:00 | 00:00:00 | |
| LZ4TU-5 | 2026-08-31 23:21:04 | 44.24749 | 22.51833 | 81° | 11km/h | 2163m | 5.9m/s | 15.2°C | 54.1% | 0hPa | 0V | 00:00:00 | 00:00:00 | 00:00:00 | |
| LZ4TU-5 | 2026-08-31 23:20:59 | 44.24751 | 22.51823 | 357° | 9km/h | 2134m | 6.2m/s | 15.2°C | 56.1% | 0hPa | 0V | 00:00:00 | 00:00:00 | 00:00:00 | |
| LZ4TU-5 | 2026-08-31 23:19:55 | 44.24649 | 22.51907 | 303° | 11km/h | 1730m | 6.1m/s | 17.1°C | 51.7% | 0hPa | 0V | 00:00:00 | 00:00:00 | 00:00:00 | |
| LZ4TU-5 | 2026-08-31 23:19:50 | 44.24643 | 22.51923 | 328° | 15km/h | 1697m | 6.9m/s | 17.4°C | 51.1% | 0hPa | 0V | 00:00:00 | 00:00:00 | 00:00:00 | |
| LZ4TU-5 | 2026-08-31 23:18:47 | 44.24455 | 22.52207 | 310° | 20km/h | 1298m | 6.3m/s | 20.5°C | 46.1% | 0hPa | 0V | 00:00:00 | 00:00:00 | 00:00:00 | |
| LZ4TU-5 | 2026-08-31 23:18:42 | 44.24445 | 22.52234 | 298° | 24km/h | 1268m | 5.5m/s | 20.8°C | 45.6% | 0hPa | 0V | 00:00:00 | 00:00:00 | 00:00:00 | |
| LZ4TU-5 | 2026-08-31 23:17:40 | 44.24285 | 22.52604 | 303° | 27km/h | 882m | 6.3m/s | 23.9°C | 37.5% | 0hPa | 0V | 00:00:00 | 00:00:00 | 00:00:00 | |
| LZ4TU-5 | 2026-08-31 23:17:36 | 44.24275 | 22.52636 | 296° | 31km/h | 857m | 6.9m/s | 24.0°C | 37.3% | 0hPa | 0V | 00:00:00 | 00:00:00 | 00:00:00 | |
| LZ4TU-5 | 2026-08-31 23:17:31 | 44.24250 | 22.52675 | 309° | 26km/h | 824m | 6.6m/s | 24.1°C | 37.2% | 0hPa | 0V | 00:00:00 | 00:00:00 | 00:00:00 | |
| LZ4TU-5 | 2026-08-31 23:16:27 | 44.23990 | 22.53448 | 296° | 33km/h | 426m | 6.2m/s | 25.4°C | 37.5% | 0hPa | 0V | 00:00:00 | 00:00:00 | 00:00:00 | |
| LZ4TU-5 | 2026-08-31 23:16:22 | 44.23976 | 22.53479 | 314° | 26km/h | 399m | 6.8m/s | 25.6°C | 0% | 0hPa | 0V | 00:00:00 | 00:00:00 | 00:00:00 |